Time;durP1;ratioP1;P1;durP2;ratioP2;P2;SDS_P1;SDS_P2;PMS_P1;PMS_P2;Temp;Humidity;BMP_temperature;BMP_pressure;BME280_temperature;BME280_humidity;BME280_pressure;Samples;Min_cycle;Max_cycle;Signal;HPM_P1;HPM_P2
2023/06/02 00:02:39;;;;;;;5.95;4.20;;;26.10;99.90;;;;;;5033123;28;20046;-52
2023/06/02 00:05:05;;;;;;;5.53;3.90;;;26.20;99.90;;;;;;5034302;28;20037;-52
2023/06/02 00:07:30;;;;;;;5.28;4.38;;;26.20;99.90;;;;;;5034275;28;20028;-53
2023/06/02 00:09:56;;;;;;;6.18;4.20;;;26.10;99.90;;;;;;5034505;28;20355;-52
2023/06/02 00:12:22;;;;;;;7.43;4.38;;;26.20;99.90;;;;;;5021315;28;20029;-51
2023/06/02 00:14:48;;;;;;;8.45;4.78;;;26.20;99.90;;;;;;5034046;28;20367;-51
2023/06/02 00:17:14;;;;;;;9.55;4.90;;;26.20;99.90;;;;;;5033801;28;20026;-52
2023/06/02 00:19:42;;;;;;;7.00;4.53;;;26.10;99.90;;;;;;5034122;28;20025;-51
2023/06/02 00:22:15;;;;;;;6.57;4.40;;;26.10;99.90;;;;;;5034049;28;20022;-52
2023/06/02 00:24:42;;;;;;;6.90;4.05;;;26.10;99.90;;;;;;5033928;28;20045;-52
2023/06/02 00:27:08;;;;;;;5.37;4.50;;;26.10;99.90;;;;;;5033781;28;20477;-51
2023/06/02 00:29:34;;;;;;;4.63;3.80;;;26.10;99.90;;;;;;5033887;28;20259;-52
2023/06/02 00:32:00;;;;;;;6.72;4.85;;;26.10;99.90;;;;;;5033577;28;20041;-52
2023/06/02 00:34:26;;;;;;;6.10;4.55;;;26.10;99.90;;;;;;5033961;28;20088;-52
2023/06/02 00:36:51;;;;;;;5.50;4.10;;;26.10;99.90;;;;;;5033884;28;20021;-51
2023/06/02 00:39:17;;;;;;;5.32;4.07;;;26.10;99.90;;;;;;5033655;28;20100;-51
2023/06/02 00:41:45;;;;;;;6.63;4.38;;;26.10;99.90;;;;;;5033773;28;20099;-51
2023/06/02 00:44:11;;;;;;;6.95;3.92;;;26.10;99.90;;;;;;5033611;28;20034;-51
2023/06/02 00:46:37;;;;;;;5.90;3.92;;;26.10;99.90;;;;;;5033294;28;20030;-51
2023/06/02 00:49:03;;;;;;;4.85;3.65;;;26.10;99.90;;;;;;5033883;28;20482;-51
2023/06/02 00:51:29;;;;;;;4.95;3.70;;;26.10;99.90;;;;;;5033539;28;20021;-51
2023/06/02 00:53:55;;;;;;;6.80;4.30;;;26.10;99.90;;;;;;5032036;28;20017;-51
2023/06/02 00:56:23;;;;;;;5.13;3.97;;;26.10;99.90;;;;;;5033550;28;20032;-51
2023/06/02 00:58:49;;;;;;;5.80;4.20;;;26.10;99.90;;;;;;5015821;28;20014;-51
2023/06/02 01:01:18;;;;;;;5.05;4.07;;;26.10;99.90;;;;;;5045932;22;20045;-59
2023/06/02 01:03:47;;;;;;;6.80;4.18;;;26.10;99.90;;;;;;5033333;28;20509;-57
2023/06/02 01:06:15;;;;;;;5.32;4.00;;;26.10;99.90;;;;;;5033460;28;20319;-58
2023/06/02 01:08:43;;;;;;;6.93;4.15;;;26.10;99.90;;;;;;5032994;28;20014;-56
2023/06/02 01:11:09;;;;;;;5.80;4.30;;;26.00;99.90;;;;;;5031784;28;20035;-56
2023/06/02 01:13:35;;;;;;;7.22;4.10;;;26.10;99.90;;;;;;5032995;28;20055;-56
2023/06/02 01:16:01;;;;;;;5.50;3.78;;;26.10;99.90;;;;;;5032969;28;20125;-56
2023/06/02 01:18:29;;;;;;;5.03;3.90;;;26.00;99.90;;;;;;5033059;28;20075;-56
2023/06/02 01:20:58;;;;;;;;;;;26.10;99.90;;;;;;5033491;28;20186;-56
2023/06/02 01:23:32;;;;;;;8.00;4.43;;;26.10;99.90;;;;;;5032533;28;19966;-56
2023/06/02 01:25:58;;;;;;;9.55;4.47;;;26.10;99.90;;;;;;5032640;28;20018;-58
2023/06/02 01:28:26;;;;;;;6.38;4.10;;;26.10;99.90;;;;;;5031666;28;20036;-57
2023/06/02 01:30:58;;;;;;;5.80;3.70;;;26.10;99.90;;;;;;5032825;28;20037;-57
2023/06/02 01:33:38;;;;;;;6.47;4.15;;;26.00;99.90;;;;;;5032968;28;20385;-58
2023/06/02 01:36:04;;;;;;;7.82;4.28;;;26.10;99.90;;;;;;5032920;28;20014;-57
2023/06/02 01:38:31;;;;;;;4.55;3.50;;;26.00;99.90;;;;;;5032612;28;20385;-57
2023/06/02 01:41:03;;;;;;;5.18;3.90;;;26.00;99.90;;;;;;5032906;28;20018;-56
2023/06/02 01:43:32;;;;;;;6.72;3.90;;;26.00;99.90;;;;;;5032655;28;20117;-56
2023/06/02 01:45:59;;;;;;;5.72;3.60;;;26.00;99.90;;;;;;5032769;28;20021;-56
2023/06/02 01:48:30;;;;;;;5.97;3.90;;;26.00;99.90;;;;;;5032585;28;20493;-57
2023/06/02 01:50:56;;;;;;;5.20;3.95;;;26.00;99.90;;;;;;5032990;28;20076;-57
2023/06/02 01:53:26;;;;;;;5.18;3.78;;;26.00;99.90;;;;;;5032421;28;20029;-57
2023/06/02 01:55:52;;;;;;;4.53;3.20;;;26.00;99.90;;;;;;5032861;28;20017;-57
2023/06/02 01:58:19;;;;;;;5.97;4.03;;;26.00;99.90;;;;;;5032689;28;20025;-56
2023/06/02 02:00:45;;;;;;;5.28;3.67;;;26.00;99.90;;;;;;5045176;22;20164;-50
2023/06/02 02:03:12;;;;;;;5.13;3.58;;;26.00;99.90;;;;;;5032568;28;20521;-53
2023/06/02 02:05:38;;;;;;;7.75;4.38;;;26.00;99.90;;;;;;5019674;28;20022;-51
2023/06/02 02:08:04;;;;;;;6.18;3.97;;;26.00;99.90;;;;;;5022711;28;20117;-51
2023/06/02 02:10:30;;;;;;;4.20;3.10;;;25.90;99.90;;;;;;5032399;28;20390;-51
2023/06/02 02:12:56;;;;;;;4.63;3.30;;;25.90;99.90;;;;;;5014602;28;20378;-51
2023/06/02 02:15:22;;;;;;;6.00;3.45;;;26.00;99.90;;;;;;5032490;28;20071;-51
2023/06/02 02:17:49;;;;;;;6.03;3.50;;;26.00;99.90;;;;;;5033234;28;20519;-51
2023/06/02 02:20:19;;;;;;;5.47;3.70;;;25.90;99.90;;;;;;5032441;28;20018;-50
2023/06/02 02:22:47;;;;;;;6.20;3.70;;;25.90;99.90;;;;;;5031239;28;20113;-51
2023/06/02 02:25:14;;;;;;;5.80;3.58;;;25.90;99.90;;;;;;5032370;28;20037;-50
2023/06/02 02:27:40;;;;;;;6.18;3.95;;;25.90;99.90;;;;;;5032561;28;20467;-51
2023/06/02 02:30:06;;;;;;;4.25;3.50;;;25.90;99.90;;;;;;5031904;28;20164;-50
2023/06/02 02:32:38;;;;;;;5.77;3.47;;;25.90;99.90;;;;;;5032511;28;20033;-50
2023/06/02 02:35:04;;;;;;;5.75;3.50;;;25.90;99.90;;;;;;5032201;28;20030;-51
2023/06/02 02:37:31;;;;;;;6.03;3.65;;;25.90;99.90;;;;;;5035060;28;20021;-50
2023/06/02 02:39:57;;;;;;;5.40;3.50;;;25.90;99.90;;;;;;5036046;28;20025;-51
2023/06/02 02:42:23;;;;;;;5.22;3.83;;;25.90;99.90;;;;;;5035853;28;20021;-50
2023/06/02 02:44:49;;;;;;;3.88;3.08;;;25.90;99.90;;;;;;5035594;28;20037;-52
2023/06/02 02:47:15;;;;;;;4.93;3.40;;;25.90;99.90;;;;;;5035692;28;20101;-51
2023/06/02 02:49:40;;;;;;;6.72;3.85;;;25.90;99.90;;;;;;5035909;28;20548;-50
2023/06/02 02:52:07;;;;;;;5.30;3.33;;;25.90;99.90;;;;;;5035602;28;20030;-50
2023/06/02 02:54:32;;;;;;;5.47;3.58;;;25.90;99.90;;;;;;5035578;28;20125;-50
2023/06/02 02:56:58;;;;;;;5.07;3.50;;;25.90;99.90;;;;;;5035407;28;20018;-50
2023/06/02 02:59:25;;;;;;;4.60;3.25;;;25.90;99.90;;;;;;5035626;28;20033;-51
2023/06/02 03:01:51;;;;;;;4.65;3.30;;;25.90;99.90;;;;;;5035503;28;20076;-50
2023/06/02 03:04:21;;;;;;;4.28;3.13;;;25.90;99.90;;;;;;5035281;28;20041;-50
2023/06/02 03:06:49;;;;;;;5.10;3.25;;;25.90;99.90;;;;;;5035446;28;20105;-50
2023/06/02 03:09:17;;;;;;;4.38;3.10;;;25.90;99.90;;;;;;5035400;28;20030;-50
2023/06/02 03:11:43;;;;;;;7.47;3.70;;;25.90;99.90;;;;;;5035421;28;20035;-51
2023/06/02 03:14:10;;;;;;;8.25;3.80;;;25.90;99.90;;;;;;5035456;28;20025;-51
2023/06/02 03:16:40;;;;;;;4.25;3.33;;;25.90;99.90;;;;;;5034799;28;20022;-51
2023/06/02 03:19:07;;;;;;;6.93;3.80;;;25.80;99.90;;;;;;5033666;28;20033;-50
2023/06/02 03:21:41;;;;;;;4.72;3.08;;;25.80;99.90;;;;;;5035157;28;20100;-50
2023/06/02 03:24:11;;;;;;;5.57;3.63;;;25.80;99.90;;;;;;5035069;28;20037;-50
2023/06/02 03:26:41;;;;;;;4.35;2.65;;;25.80;99.90;;;;;;5035135;28;20362;-50
2023/06/02 03:29:11;;;;;;;6.97;3.53;;;25.80;99.90;;;;;;5035020;28;20049;-50
2023/06/02 03:31:37;;;;;;;6.85;3.40;;;25.80;99.90;;;;;;5034795;28;20509;-50
2023/06/02 03:34:04;;;;;;;5.53;3.03;;;25.80;99.90;;;;;;5034991;28;20083;-51
2023/06/02 03:36:34;;;;;;;4.40;2.72;;;25.80;99.90;;;;;;5035008;28;20022;-50
2023/06/02 03:39:04;;;;;;;6.60;3.30;;;25.80;99.90;;;;;;5034888;28;20014;-50
2023/06/02 03:41:30;;;;;;;5.78;2.85;;;25.80;99.90;;;;;;5035143;28;20028;-51
2023/06/02 03:43:56;;;;;;;5.10;3.25;;;25.80;99.90;;;;;;5034629;28;20025;-50
2023/06/02 03:46:22;;;;;;;4.57;2.83;;;25.80;99.90;;;;;;5034608;28;20484;-50
2023/06/02 03:48:48;;;;;;;4.38;2.83;;;25.80;99.90;;;;;;5033994;28;20017;-50
2023/06/02 03:51:13;;;;;;;5.03;3.22;;;25.80;99.90;;;;;;5034432;28;20108;-51
2023/06/02 03:53:39;;;;;;;5.25;3.65;;;25.80;99.90;;;;;;5034361;28;20025;-50
2023/06/02 03:56:05;;;;;;;3.72;2.58;;;25.80;99.90;;;;;;5034304;28;20071;-51
2023/06/02 03:58:31;;;;;;;4.30;2.95;;;25.80;99.90;;;;;;5034512;28;20100;-50
2023/06/02 04:00:58;;;;;;;3.63;2.60;;;25.80;99.90;;;;;;5034649;28;20041;-51
2023/06/02 04:03:24;;;;;;;4.53;3.00;;;25.80;99.90;;;;;;5034380;28;20116;-51
2023/06/02 04:05:49;;;;;;;5.25;2.70;;;25.80;99.90;;;;;;5034210;28;20534;-51
2023/06/02 04:08:16;;;;;;;4.10;3.03;;;25.80;99.90;;;;;;5033839;28;20029;-50
2023/06/02 04:10:43;;;;;;;6.85;3.78;;;25.80;99.90;;;;;;5034271;28;20024;-50
2023/06/02 04:13:09;;;;;;;4.73;2.97;;;25.80;99.90;;;;;;5034031;28;20108;-51
2023/06/02 04:15:35;;;;;;;6.50;3.00;;;25.80;99.90;;;;;;5019480;28;20104;-50
2023/06/02 04:18:00;;;;;;;5.72;2.85;;;25.80;99.90;;;;;;5032553;28;20036;-51
2023/06/02 04:20:26;;;;;;;5.97;2.72;;;25.80;99.90;;;;;;5033985;28;20029;-51
2023/06/02 04:22:52;;;;;;;4.40;2.50;;;25.80;99.90;;;;;;5033832;28;20355;-51
2023/06/02 04:25:18;;;;;;;4.55;2.90;;;25.80;99.90;;;;;;5033540;28;20051;-51
2023/06/02 04:27:44;;;;;;;4.55;2.85;;;25.70;99.90;;;;;;5034151;28;20021;-50
2023/06/02 04:30:10;;;;;;;4.15;2.60;;;25.70;99.90;;;;;;5033655;28;20021;-51
2023/06/02 04:32:36;;;;;;;5.13;2.90;;;25.70;99.90;;;;;;5033893;28;20030;-50
2023/06/02 04:35:02;;;;;;;3.08;2.22;;;25.70;99.90;;;;;;5033824;28;20532;-51
2023/06/02 04:37:28;;;;;;;5.23;2.90;;;25.70;99.90;;;;;;5033669;28;20108;-50
2023/06/02 04:39:55;;;;;;;4.30;2.40;;;25.70;99.90;;;;;;5033703;28;20105;-49
2023/06/02 04:42:21;;;;;;;4.45;3.08;;;25.70;99.90;;;;;;5019178;28;20104;-49
2023/06/02 04:44:48;;;;;;;4.25;2.95;;;25.70;99.90;;;;;;5033427;28;20109;-50
2023/06/02 04:47:14;;;;;;;4.10;2.95;;;25.70;99.90;;;;;;5033552;28;20033;-50
2023/06/02 04:49:40;;;;;;;4.53;2.72;;;25.70;99.90;;;;;;5033484;28;20029;-50
2023/06/02 04:52:09;;;;;;;3.97;3.10;;;25.70;99.90;;;;;;5033444;28;20127;-50
2023/06/02 04:54:35;;;;;;;5.97;2.72;;;25.70;99.90;;;;;;5033334;28;20045;-50
2023/06/02 04:57:05;;;;;;;4.50;3.13;;;25.70;99.90;;;;;;5031572;28;20049;-51
2023/06/02 04:59:35;;;;;;;4.85;2.70;;;25.60;99.90;;;;;;5032880;28;20029;-50
2023/06/02 05:02:02;;;;;;;4.03;2.58;;;25.60;99.90;;;;;;5032788;28;20073;-50
2023/06/02 05:04:27;;;;;;;4.28;2.60;;;25.60;99.90;;;;;;5033192;28;20037;-50
2023/06/02 05:06:53;;;;;;;5.82;2.70;;;25.60;99.90;;;;;;5033208;28;20032;-51
2023/06/02 05:09:19;;;;;;;6.28;2.60;;;25.60;99.90;;;;;;5032996;28;20470;-50
2023/06/02 05:11:45;;;;;;;5.90;3.08;;;25.60;99.90;;;;;;5033203;28;20092;-50
2023/06/02 05:14:12;;;;;;;5.47;2.85;;;25.60;99.90;;;;;;5033059;28;20136;-51
2023/06/02 05:16:43;;;;;;;3.67;2.65;;;25.60;99.90;;;;;;5032699;28;20060;-50
2023/06/02 05:19:08;;;;;;;3.60;2.47;;;25.60;99.90;;;;;;5033009;28;20030;-50
2023/06/02 05:21:34;;;;;;;5.18;3.78;;;25.60;99.90;;;;;;5032975;28;20028;-52
2023/06/02 05:24:00;;;;;;;3.95;2.67;;;25.60;99.90;;;;;;5032873;28;20061;-50
2023/06/02 05:26:26;;;;;;;6.05;3.22;;;25.60;99.90;;;;;;5033122;28;20104;-50
2023/06/02 05:28:53;;;;;;;3.72;2.63;;;25.60;99.90;;;;;;5032995;28;20025;-52
2023/06/02 05:31:19;;;;;;;8.00;2.75;;;25.60;99.90;;;;;;5032696;28;20022;-52
2023/06/02 05:33:45;;;;;;;6.88;2.40;;;25.60;99.90;;;;;;5032953;28;20033;-52
2023/06/02 05:36:11;;;;;;;4.55;2.70;;;25.60;99.90;;;;;;5032902;28;20033;-50
2023/06/02 05:38:43;;;;;;;4.65;2.85;;;25.60;99.90;;;;;;5032823;28;20481;-51
2023/06/02 05:41:12;;;;;;;7.28;2.83;;;25.60;99.90;;;;;;5032740;28;20076;-51
2023/06/02 05:43:38;;;;;;;3.85;2.55;;;25.60;99.90;;;;;;5032642;28;20131;-50
2023/06/02 05:46:03;;;;;;;3.90;2.35;;;25.50;99.90;;;;;;5032629;28;20041;-50
2023/06/02 05:48:29;;;;;;;5.05;2.88;;;25.60;99.90;;;;;;5032715;28;20025;-51
2023/06/02 05:50:55;;;;;;;5.07;2.58;;;25.60;99.90;;;;;;5032698;28;20099;-49
2023/06/02 05:53:21;;;;;;;4.15;2.50;;;25.50;99.90;;;;;;5032733;28;20359;-51
2023/06/02 05:55:46;;;;;;;5.97;3.05;;;25.60;99.90;;;;;;5033211;28;20401;-50
2023/06/02 05:58:12;;;;;;;4.35;2.63;;;25.50;99.90;;;;;;5031253;28;20286;-49
2023/06/02 06:00:38;;;;;;;4.80;2.75;;;25.50;99.90;;;;;;5032390;28;20052;-50
2023/06/02 06:03:04;;;;;;;4.72;3.03;;;25.50;99.90;;;;;;5032560;28;20032;-52
2023/06/02 06:05:30;;;;;;;4.25;2.40;;;25.50;99.90;;;;;;5032635;28;20042;-50
2023/06/02 06:07:57;;;;;;;4.15;2.15;;;25.50;99.90;;;;;;5032538;28;20100;-51
2023/06/02 06:10:23;;;;;;;3.97;2.60;;;25.50;99.90;;;;;;5032667;28;20565;-50
2023/06/02 06:12:49;;;;;;;4.15;3.05;;;25.50;99.90;;;;;;5034443;28;20076;-50
2023/06/02 06:15:15;;;;;;;3.50;2.38;;;25.50;99.90;;;;;;5036118;28;20433;-50
2023/06/02 06:17:49;;;;;;;5.20;2.60;;;25.50;99.90;;;;;;5034956;28;20112;-50
2023/06/02 06:20:15;;;;;;;4.95;2.95;;;25.50;99.90;;;;;;5036121;28;20070;-49
2023/06/02 06:22:42;;;;;;;4.93;2.88;;;25.50;99.90;;;;;;5036380;28;20377;-50
2023/06/02 06:25:08;;;;;;;5.45;2.85;;;25.50;99.90;;;;;;5034564;28;20481;-50
2023/06/02 06:27:34;;;;;;;4.47;2.83;;;25.50;99.90;;;;;;5036237;28;20061;-50
2023/06/02 06:30:00;;;;;;;6.13;2.70;;;25.50;99.90;;;;;;5035923;28;20102;-51
2023/06/02 06:32:25;;;;;;;4.85;2.63;;;25.50;99.90;;;;;;5036031;28;20025;-50
2023/06/02 06:34:51;;;;;;;5.10;2.63;;;25.50;99.90;;;;;;5034685;28;20121;-50
2023/06/02 06:37:17;;;;;;;4.35;2.47;;;25.50;99.90;;;;;;5035906;28;20463;-51
2023/06/02 06:39:43;;;;;;;3.88;2.50;;;25.50;99.90;;;;;;5035650;28;20025;-51
2023/06/02 06:42:09;;;;;;;5.30;2.72;;;25.50;99.90;;;;;;5035891;28;20095;-51
2023/06/02 06:44:34;;;;;;;5.22;2.83;;;25.50;99.90;;;;;;5035621;28;20044;-51
2023/06/02 06:47:00;;;;;;;3.55;2.60;;;25.50;99.90;;;;;;5035571;28;20056;-51
2023/06/02 06:49:26;;;;;;;6.15;3.05;;;25.50;99.90;;;;;;5034337;28;20065;-51
2023/06/02 06:51:52;;;;;;;3.97;2.53;;;25.50;99.90;;;;;;5035661;28;20080;-51
2023/06/02 06:54:18;;;;;;;5.60;3.33;;;25.50;99.90;;;;;;5034300;28;20022;-50
2023/06/02 06:56:45;;;;;;;3.65;2.67;;;25.50;99.90;;;;;;5035367;28;20033;-50
2023/06/02 06:59:11;;;;;;;;;;;25.50;99.90;;;;;;5036072;28;20017;-50
2023/06/02 07:01:38;;;;;;;3.25;2.50;;;25.60;99.90;;;;;;5034888;28;19921;-51
2023/06/02 07:04:04;;;;;;;3.85;2.35;;;25.60;99.90;;;;;;5035520;28;20037;-52
2023/06/02 07:06:29;;;;;;;3.95;2.80;;;25.50;99.90;;;;;;5035392;28;20048;-51
2023/06/02 07:08:55;;;;;;;3.85;2.83;;;25.50;99.90;;;;;;5035113;28;20075;-51
2023/06/02 07:11:21;;;;;;;4.85;3.08;;;25.60;99.90;;;;;;5035414;28;20017;-50
2023/06/02 07:13:47;;;;;;;4.22;2.78;;;25.60;99.90;;;;;;5035173;28;20074;-50
2023/06/02 07:16:13;;;;;;;3.88;2.63;;;25.60;99.90;;;;;;5035189;28;20025;-50
2023/06/02 07:18:38;;;;;;;6.68;2.63;;;25.60;99.90;;;;;;5035053;28;20076;-49
2023/06/02 07:21:04;;;;;;;4.32;2.80;;;25.60;99.90;;;;;;5035526;28;20113;-51
2023/06/02 07:23:30;;;;;;;3.33;2.40;;;25.60;99.90;;;;;;5033769;28;20048;-50
2023/06/02 07:25:56;;;;;;;3.22;2.65;;;25.60;99.90;;;;;;5035264;28;20059;-50
2023/06/02 07:28:22;;;;;;;7.43;3.67;;;25.60;99.90;;;;;;5035031;28;20021;-50
2023/06/02 07:30:48;;;;;;;4.13;2.80;;;25.60;99.90;;;;;;5034841;28;20021;-51
2023/06/02 07:33:15;;;;;;;4.75;2.95;;;25.60;99.90;;;;;;5034899;28;20108;-50
2023/06/02 07:35:41;;;;;;;3.70;3.00;;;25.60;99.90;;;;;;5034933;28;20021;-48
2023/06/02 07:38:06;;;;;;;4.13;2.67;;;25.60;99.90;;;;;;5034730;28;20466;-50
2023/06/02 07:40:32;;;;;;;4.25;2.85;;;25.60;99.90;;;;;;5020136;28;20091;-52
2023/06/02 07:42:58;;;;;;;4.85;3.00;;;25.60;99.90;;;;;;5034729;28;20017;-51
2023/06/02 07:45:24;;;;;;;4.70;3.05;;;25.60;99.90;;;;;;5034354;28;20049;-53
2023/06/02 07:47:50;;;;;;;4.43;3.08;;;25.60;99.90;;;;;;5034752;28;20057;-50
2023/06/02 07:50:15;;;;;;;3.80;3.00;;;25.60;99.90;;;;;;5034530;28;20021;-51
2023/06/02 07:52:41;;;;;;;5.97;3.72;;;25.60;99.90;;;;;;5034461;28;20096;-51
2023/06/02 07:55:07;;;;;;;5.40;3.58;;;25.60;99.90;;;;;;5034277;28;20028;-49
2023/06/02 07:57:33;;;;;;;7.47;4.07;;;25.60;99.90;;;;;;5034379;28;20079;-51
2023/06/02 08:00:09;;;;;;;5.00;3.10;;;25.60;99.90;;;;;;5023645;28;20025;-49
2023/06/02 08:02:35;;;;;;;5.40;3.53;;;25.60;99.90;;;;;;5022005;28;20049;-50
2023/06/02 08:05:00;;;;;;;4.80;3.42;;;25.70;99.90;;;;;;5033067;28;20128;-49
2023/06/02 08:07:26;;;;;;;6.13;3.83;;;25.70;99.90;;;;;;5033918;28;20067;-50
2023/06/02 08:09:52;;;;;;;6.38;3.90;;;25.70;99.90;;;;;;5034388;28;20057;-51
2023/06/02 08:12:20;;;;;;;5.97;4.18;;;25.70;99.90;;;;;;5034069;28;20018;-49
2023/06/02 08:14:45;;;;;;;7.22;5.25;;;25.70;99.90;;;;;;5034118;28;20116;-51
2023/06/02 08:17:11;;;;;;;5.68;3.92;;;25.70;99.90;;;;;;5033577;28;20061;-53
2023/06/02 08:19:37;;;;;;;7.25;5.22;;;25.70;99.90;;;;;;5034034;28;20033;-51
2023/06/02 08:22:03;;;;;;;6.57;4.35;;;25.70;99.90;;;;;;5034013;28;20017;-51
2023/06/02 08:24:29;;;;;;;5.90;4.55;;;25.70;99.90;;;;;;5033789;28;20030;-51
2023/06/02 08:26:55;;;;;;;7.28;5.57;;;25.70;99.90;;;;;;5033830;28;20092;-50
2023/06/02 08:29:22;;;;;;;9.40;5.50;;;25.70;99.90;;;;;;5032334;28;20025;-50
2023/06/02 08:31:48;;;;;;;8.13;5.32;;;25.70;99.90;;;;;;5033440;28;20017;-51
2023/06/02 08:34:14;;;;;;;9.40;5.75;;;25.70;99.90;;;;;;5033768;28;20108;-50
2023/06/02 08:36:40;;;;;;;8.88;5.00;;;25.70;99.90;;;;;;5033787;28;20488;-50
2023/06/02 08:39:07;;;;;;;9.65;6.45;;;25.70;99.90;;;;;;5019258;28;20052;-50
2023/06/02 08:41:37;;;;;;;11.73;7.65;;;25.70;99.90;;;;;;5033964;28;20029;-50
2023/06/02 08:44:03;;;;;;;8.93;6.70;;;25.70;99.90;;;;;;5033497;28;20478;-52
2023/06/02 08:46:29;;;;;;;10.57;7.93;;;25.70;99.90;;;;;;5032179;28;20099;-51
2023/06/02 08:48:58;;;;;;;10.02;6.93;;;25.70;99.90;;;;;;5033402;28;20478;-51
2023/06/02 08:51:24;;;;;;;11.63;7.40;;;25.70;99.90;;;;;;5033625;28;20033;-51
2023/06/02 08:53:50;;;;;;;10.75;8.35;;;25.80;99.90;;;;;;5033274;28;20036;-51
2023/06/02 08:56:16;;;;;;;12.15;8.32;;;25.80;99.90;;;;;;5033268;28;20029;-51
2023/06/02 08:58:46;;;;;;;12.60;9.07;;;25.80;99.90;;;;;;5033264;28;20056;-51
2023/06/02 09:01:12;;;;;;;11.27;7.50;;;25.70;99.90;;;;;;5032926;28;20133;-52
2023/06/02 09:03:38;;;;;;;11.85;8.38;;;25.80;99.90;;;;;;5033309;28;20378;-52
2023/06/02 09:06:20;;;;;;;12.20;8.73;;;25.80;99.90;;;;;;5033385;28;20028;-52
2023/06/02 09:09:00;;;;;;;12.73;9.10;;;25.80;99.90;;;;;;5033122;28;20017;-51
2023/06/02 09:11:31;;;;;;;11.70;8.98;;;25.80;99.90;;;;;;5033236;28;20064;-51
2023/06/02 09:13:57;;;;;;;12.63;9.02;;;25.80;99.90;;;;;;5032852;28;20017;-51
2023/06/02 09:16:38;;;;;;;11.63;8.68;;;25.80;99.90;;;;;;5032920;28;20075;-50
2023/06/02 09:19:04;;;;;;;12.43;8.27;;;25.80;99.90;;;;;;5018090;28;20482;-50
2023/06/02 09:21:33;;;;;;;10.27;8.40;;;25.80;99.90;;;;;;5031894;28;20032;-51
2023/06/02 09:24:00;;;;;;;10.80;8.60;;;25.80;99.90;;;;;;5031188;28;20593;-51
2023/06/02 09:26:27;;;;;;;;;;;25.80;99.90;;;;;;5016138;28;20060;-51
2023/06/02 09:29:11;;;;;;;11.32;7.95;;;25.80;99.90;;;;;;5032857;28;19905;-51
2023/06/02 09:31:53;;;;;;;14.77;8.63;;;25.80;99.90;;;;;;5031468;28;20466;-51
2023/06/02 09:34:21;;;;;;;10.50;8.15;;;25.80;99.90;;;;;;5032663;28;20025;-51
2023/06/02 09:36:52;;;;;;;12.30;7.75;;;25.80;99.90;;;;;;5032983;28;20025;-50
2023/06/02 09:39:35;;;;;;;11.05;8.07;;;25.80;99.90;;;;;;5032662;28;20113;-51
2023/06/02 09:42:01;;;;;;;11.30;7.38;;;25.80;99.90;;;;;;5032583;28;20025;-51
2023/06/02 09:44:27;;;;;;;13.80;7.72;;;25.80;99.90;;;;;;5033098;28;20041;-51
2023/06/02 09:46:53;;;;;;;10.52;7.70;;;25.80;99.90;;;;;;5034259;28;20021;-50
2023/06/02 09:49:20;;;;;;;10.75;8.02;;;25.80;99.90;;;;;;5035528;28;20104;-53
2023/06/02 09:51:46;;;;;;;10.63;8.15;;;25.80;99.90;;;;;;5035082;28;20470;-50
2023/06/02 09:54:11;;;;;;;9.02;7.60;;;25.80;99.90;;;;;;5035189;28;20035;-51
2023/06/02 09:56:38;;;;;;;14.07;7.90;;;25.80;99.90;;;;;;5036570;28;20104;-51
2023/06/02 09:59:08;;;;;;;12.02;7.20;;;25.80;99.90;;;;;;5036705;28;20091;-50
2023/06/02 10:01:35;;;;;;;10.07;7.30;;;25.80;99.90;;;;;;5036452;28;20037;-51
2023/06/02 10:04:05;;;;;;;9.15;6.85;;;25.80;99.90;;;;;;5009374;28;20060;-51
2023/06/02 10:06:55;;;;;;;10.02;7.40;;;25.80;99.90;;;;;;5036461;28;20025;-51
2023/06/02 10:09:52;;;;;;;9.80;7.50;;;25.80;99.90;;;;;;5024374;28;20022;-51
2023/06/02 10:12:36;;;;;;;12.20;8.00;;;25.80;99.90;;;;;;5036576;28;20108;-50
2023/06/02 10:15:43;;;;;;;8.70;6.60;;;25.80;99.90;;;;;;5036146;28;20030;-51
2023/06/02 10:18:39;;;;;;;15.00;8.23;;;25.80;99.90;;;;;;5022531;28;20037;-50
2023/06/02 10:21:35;;;;;;;8.88;7.18;;;25.80;99.90;;;;;;5025343;28;20029;-51
2023/06/02 10:24:27;;;;;;;10.67;7.10;;;25.80;99.90;;;;;;5035808;28;20029;-50
2023/06/02 10:27:26;;;;;;;9.02;7.00;;;25.80;99.90;;;;;;5035856;28;20028;-50
2023/06/02 10:29:56;;;;;;;8.82;6.40;;;25.80;99.90;;;;;;5034528;28;20389;-51
2023/06/02 10:32:27;;;;;;;9.18;7.47;;;25.90;99.90;;;;;;5036140;28;20500;-51
2023/06/02 10:34:57;;;;;;;9.32;7.05;;;25.90;99.90;;;;;;5036164;28;20039;-51
2023/06/02 10:37:23;;;;;;;7.55;6.50;;;25.90;99.90;;;;;;5036081;28;20100;-51
2023/06/02 10:39:51;;;;;;;9.25;6.85;;;25.90;99.90;;;;;;5035949;28;20120;-51
2023/06/02 10:42:18;;;;;;;8.57;6.32;;;25.90;99.90;;;;;;5035793;28;20037;-50
2023/06/02 10:44:47;;;;;;;9.00;6.72;;;25.90;99.90;;;;;;5035555;28;20103;-50
2023/06/02 10:47:19;;;;;;;8.93;6.65;;;25.90;99.90;;;;;;5035564;28;20033;-50
2023/06/02 10:49:59;;;;;;;8.90;6.78;;;25.90;99.90;;;;;;5035571;28;20026;-51
2023/06/02 10:52:55;;;;;;;9.20;6.63;;;25.90;99.90;;;;;;5021465;28;20025;-51
2023/06/02 10:55:20;;;;;;;9.95;6.85;;;25.90;99.90;;;;;;5035400;28;20080;-51
2023/06/02 10:58:05;;;;;;;10.43;7.00;;;25.90;99.90;;;;;;5034263;28;20018;-51
2023/06/02 11:00:36;;;;;;;9.00;7.15;;;25.90;99.90;;;;;;5035195;28;20580;-50
2023/06/02 11:03:17;;;;;;;9.45;7.15;;;25.90;99.90;;;;;;5035390;28;20037;-51
2023/06/02 11:05:49;;;;;;;8.98;7.57;;;25.90;99.90;;;;;;5035478;28;20029;-51
2023/06/02 11:08:18;;;;;;;8.70;6.88;;;25.90;99.90;;;;;;5035241;28;20021;-51
2023/06/02 11:10:58;;;;;;;8.73;6.43;;;25.90;99.90;;;;;;5035377;28;20018;-51
2023/06/02 11:13:25;;;;;;;8.80;7.18;;;25.90;99.90;;;;;;5035316;28;20417;-51
2023/06/02 11:15:53;;;;;;;7.68;6.30;;;25.90;99.90;;;;;;5033956;28;20488;-51
2023/06/02 11:18:22;;;;;;;7.30;6.40;;;26.00;99.90;;;;;;5035182;28;20026;-51
2023/06/02 11:20:55;;;;;;;10.73;7.25;;;25.90;99.90;;;;;;5035133;28;20127;-50
2023/06/02 11:23:22;;;;;;;9.05;6.63;;;25.90;99.90;;;;;;5035100;28;20025;-51
2023/06/02 11:25:49;;;;;;;7.47;6.23;;;26.00;99.90;;;;;;5035212;28;20030;-50
2023/06/02 11:28:22;;;;;;;8.48;6.70;;;26.00;99.90;;;;;;5035052;28;20626;-51
2023/06/02 11:31:07;;;;;;;9.85;6.25;;;26.00;99.90;;;;;;5021840;28;20017;-51
2023/06/02 11:33:34;;;;;;;8.05;5.93;;;26.00;99.90;;;;;;5034805;28;20565;-51
2023/06/02 11:36:04;;;;;;;7.00;5.80;;;26.00;99.90;;;;;;5034884;28;20025;-51
2023/06/02 11:38:33;;;;;;;6.30;5.65;;;26.00;99.90;;;;;;5034537;28;20033;-51
2023/06/02 11:41:15;;;;;;;6.95;5.72;;;26.00;99.90;;;;;;5034712;28;20075;-51
2023/06/02 11:43:46;;;;;;;9.68;6.45;;;26.00;99.90;;;;;;5033261;28;20029;-50
2023/06/02 11:46:18;;;;;;;8.73;5.72;;;26.00;99.90;;;;;;5034656;28;20025;-50
2023/06/02 11:48:45;;;;;;;7.97;6.05;;;26.00;99.90;;;;;;5034674;28;20097;-50
2023/06/02 11:51:15;;;;;;;8.13;6.50;;;26.10;99.90;;;;;;5034643;28;20028;-51
2023/06/02 11:53:45;;;;;;;10.15;6.82;;;26.00;99.90;;;;;;5034139;28;20108;-51
2023/06/02 11:56:15;;;;;;;9.98;6.43;;;26.00;99.90;;;;;;5034727;28;20433;-52
2023/06/02 11:58:45;;;;;;;8.05;5.72;;;26.10;99.90;;;;;;5034372;28;20024;-50
2023/06/02 12:01:14;;;;;;;8.75;6.32;;;26.10;99.90;;;;;;5034130;28;20045;-50
2023/06/02 12:03:57;;;;;;;7.50;5.90;;;26.10;99.90;;;;;;5034044;28;20076;-52
2023/06/02 12:06:23;;;;;;;9.25;6.50;;;26.10;99.90;;;;;;5034527;28;20052;-50
2023/06/02 12:08:49;;;;;;;8.25;6.57;;;26.10;99.90;;;;;;5033518;28;20455;-50
2023/06/02 12:11:21;;;;;;;8.38;6.05;;;26.10;99.90;;;;;;5034329;28;20144;-49
2023/06/02 12:14:19;;;;;;;6.75;5.72;;;26.10;99.90;;;;;;5033889;28;20025;-50
2023/06/02 12:16:47;;;;;;;8.07;6.93;;;26.10;99.90;;;;;;5021881;28;20088;-50
2023/06/02 12:19:13;;;;;;;;;;;26.10;99.90;;;;;;5034415;28;20033;-51
2023/06/02 12:21:40;;;;;;;8.77;6.85;;;26.20;99.90;;;;;;5034103;28;19959;-50
2023/06/02 12:24:07;;;;;;;9.27;6.40;;;26.20;99.90;;;;;;5033799;28;20037;-51
2023/06/02 12:26:40;;;;;;;6.87;6.17;;;26.20;99.90;;;;;;5033873;28;20030;-50
2023/06/02 12:29:06;;;;;;;7.40;6.03;;;26.10;99.90;;;;;;5033778;28;20813;-50
2023/06/02 12:31:31;;;;;;;8.38;6.78;;;26.20;99.90;;;;;;5033680;28;20025;-51
2023/06/02 12:33:57;;;;;;;7.15;6.05;;;26.20;99.90;;;;;;5033994;28;20044;-51
2023/06/02 12:36:23;;;;;;;8.90;6.35;;;26.20;99.90;;;;;;5033705;28;20030;-51
2023/06/02 12:38:49;;;;;;;8.40;6.38;;;26.20;99.90;;;;;;5032367;28;20021;-51
2023/06/02 12:41:15;;;;;;;8.20;6.45;;;26.20;99.90;;;;;;5032383;28;20022;-51
2023/06/02 12:43:41;;;;;;;7.85;6.68;;;26.20;99.90;;;;;;5033528;28;20044;-51
2023/06/02 12:46:08;;;;;;;7.88;7.07;;;26.20;99.90;;;;;;5033591;28;20037;-51
2023/06/02 12:48:34;;;;;;;9.07;6.45;;;26.20;99.90;;;;;;5033569;28;20025;-51
2023/06/02 12:51:00;;;;;;;9.10;6.72;;;26.20;99.90;;;;;;5033701;28;20021;-51
2023/06/02 12:53:26;;;;;;;8.52;7.18;;;26.20;99.90;;;;;;5033201;28;20025;-49